Reklama

Seznam meteostanic a jejich METAR

Vyhledat místa podle abecedy:
A B C D E F G H I J K L M N O P Q R S T U V W X Y Z

Filtrovat:

ID stanice:
a/nebo
Název místa (fulltext):
 
Místo (ID)Naposledy načteno 
Edinburgh (EGPH) 31.05.2020 03:50 UTC Zobrazit METAR
EGPH 310350Z VRB01KT CAVOK 07/06 Q1026
Eindhoven (EHEH) 31.05.2020 03:55 UTC Zobrazit METAR
EHEH 310355Z AUTO 05006KT 9999 FEW080 13/05 Q1022 BLU
Entebbe (HUEN) 28.05.2020 07:00 UTC Zobrazit METAR
HUEN 280700Z 18015KT 9000 -RA FEW021 FEW023 BKN100 22/18 1020
Esbjerg (EKEB) 30.05.2020 18:50 UTC Zobrazit METAR
EKEB 301850Z AUTO 10007KT 9999 BKN069/// 18/06 Q1026
Reklama

Lunární kalendář

  • 05.06.Fáze měsíce uplnek
  • 13.06.Fáze měsíce posl_ctvrt
  • 21.06.Fáze měsíce nov
  • 28.06.Fáze měsíce prv_ctvrt



Reklama
Meteodomečky

Počasí na Váš email

Emaily jsou bez reklamy a bez spamu



Odhlásit newsletter

Reklama


Další české internetové stránky (nejen) o počasí najdete v katalogu TOPlist - weby o počasí nebo vyhledejte na internetu, co jste tu na 🌞 Slunečnu ⛅ zatím nenašli:

Reklama